createdAt,value
2022-11-16T00:01:33.401Z,90.64
2022-11-16T00:04:02.687Z,90.67
2022-11-16T00:06:29.803Z,90.63
2022-11-16T00:09:20.277Z,90.74
2022-11-16T00:11:56.204Z,90.48
2022-11-16T00:14:26.672Z,91.15
2022-11-16T00:16:53.095Z,91.27
2022-11-16T00:19:22.056Z,90.71
2022-11-16T00:21:48.767Z,90.94
2022-11-16T00:24:17.549Z,90.51
2022-11-16T00:26:44.859Z,90.79
2022-11-16T00:29:17.005Z,91.63
2022-11-16T00:31:46.372Z,90.61
2022-11-16T00:34:14.374Z,90.91
2022-11-16T00:36:41.112Z,90.73
2022-11-16T00:39:08.223Z,90.79
2022-11-16T00:41:39.243Z,91.80
2022-11-16T00:44:05.803Z,91.41
2022-11-16T00:46:32.863Z,91.12
2022-11-16T00:48:59.768Z,90.99
2022-11-16T00:51:26.179Z,90.93
2022-11-16T00:53:52.875Z,90.77
2022-11-16T00:56:19.361Z,90.49
2022-11-16T00:58:45.915Z,91.00
2022-11-16T01:01:12.734Z,90.74
2022-11-16T01:03:39.664Z,91.35
2022-11-16T01:06:10.691Z,90.57
2022-11-16T01:08:38.835Z,91.51
2022-11-16T01:11:42.507Z,91.74
2022-11-16T01:14:10.014Z,91.39
2022-11-16T01:16:37.432Z,90.99
2022-11-16T01:19:05.443Z,92.25
2022-11-16T01:21:32.212Z,91.55
2022-11-16T01:23:58.893Z,91.53
2022-11-16T01:26:25.915Z,91.71
2022-11-16T01:28:52.867Z,92.27
2022-11-16T01:31:19.825Z,91.56
2022-11-16T01:33:46.517Z,91.93
2022-11-16T01:36:17.217Z,90.87
2022-11-16T01:38:45.647Z,91.46
2022-11-16T01:41:18.075Z,91.84
2022-11-16T01:43:55.939Z,91.24
2022-11-16T01:46:23.664Z,91.36
2022-11-16T01:48:57.113Z,91.69
2022-11-16T01:51:24.625Z,91.41
2022-11-16T01:53:51.381Z,91.42
2022-11-16T01:56:18.107Z,91.04
2022-11-16T01:58:46.236Z,91.41
2022-11-16T02:01:13.171Z,91.44
2022-11-16T02:03:42.183Z,91.26
2022-11-16T02:06:28.172Z,91.26
2022-11-16T02:09:30.382Z,91.89
2022-11-16T02:12:13.747Z,92.13
2022-11-16T02:14:43.815Z,91.21
2022-11-16T02:17:29.878Z,91.40
2022-11-16T02:20:29.566Z,91.28
2022-11-16T02:22:55.892Z,91.50
2022-11-16T02:25:57.809Z,92.37
2022-11-16T02:28:43.590Z,92.69
2022-11-16T02:31:16.552Z,91.73
2022-11-16T02:33:45.483Z,91.10
2022-11-16T02:36:18.703Z,91.13
2022-11-16T02:38:52.820Z,91.37
2022-11-16T02:41:23.821Z,91.23
2022-11-16T02:44:01.467Z,92.22
2022-11-16T02:46:35.941Z,91.84
2022-11-16T02:49:05.816Z,91.53
2022-11-16T02:51:34.018Z,91.38
2022-11-16T02:54:20.585Z,91.42
2022-11-16T02:57:19.005Z,91.98
2022-11-16T02:59:50.483Z,90.96
2022-11-16T03:02:26.824Z,92.47
2022-11-16T03:05:31.912Z,91.83
2022-11-16T03:08:07.981Z,91.94
2022-11-16T03:10:57.233Z,91.72
2022-11-16T03:13:27.685Z,91.53
2022-11-16T03:15:55.891Z,91.66
2022-11-16T03:18:26.112Z,92.38
2022-11-16T03:21:03.471Z,91.49
2022-11-16T03:23:29.910Z,91.69
2022-11-16T03:25:58.030Z,91.88
2022-11-16T03:28:29.170Z,91.97
2022-11-16T03:31:02.456Z,92.10
2022-11-16T03:33:34.468Z,91.88
2022-11-16T03:36:41.229Z,91.61
2022-11-16T03:39:15.576Z,90.74
2022-11-16T03:41:43.912Z,91.03
2022-11-16T03:44:11.752Z,91.51
2022-11-16T03:46:39.693Z,91.28
2022-11-16T03:49:06.127Z,91.17
2022-11-16T03:51:32.806Z,90.88
2022-11-16T03:53:59.243Z,91.05
2022-11-16T03:56:25.718Z,91.09
2022-11-16T03:58:52.218Z,91.27
2022-11-16T04:01:18.840Z,91.24
2022-11-16T04:03:45.268Z,91.30
2022-11-16T04:06:30.513Z,91.16
2022-11-16T04:09:15.487Z,92.17
2022-11-16T04:12:00.442Z,92.52
2022-11-16T04:14:46.874Z,91.90
2022-11-16T04:17:33.651Z,91.01
2022-11-16T04:20:20.211Z,90.60
2022-11-16T04:23:16.742Z,91.03
2022-11-16T04:25:44.728Z,91.15
2022-11-16T04:28:13.980Z,90.56
2022-11-16T04:31:04.600Z,90.64
2022-11-16T04:33:50.436Z,91.62
2022-11-16T04:36:35.817Z,91.17
2022-11-16T04:39:03.260Z,91.14
2022-11-16T04:41:50.237Z,90.80
2022-11-16T04:44:17.160Z,90.84
2022-11-16T04:47:02.639Z,91.00
2022-11-16T04:49:29.030Z,90.53
2022-11-16T04:51:55.567Z,90.71
2022-11-16T04:54:21.952Z,90.47
2022-11-16T04:56:48.460Z,90.53
2022-11-16T04:59:15.151Z,90.44
2022-11-16T05:02:00.265Z,90.76
2022-11-16T05:04:26.803Z,90.67
2022-11-16T05:06:53.340Z,90.52
2022-11-16T05:09:19.783Z,90.38
2022-11-16T05:11:46.167Z,90.31
2022-11-16T05:14:12.788Z,89.98
2022-11-16T05:16:39.910Z,90.01
2022-11-16T05:19:25.157Z,89.99
2022-11-16T05:21:54.277Z,89.88
2022-11-16T05:24:35.945Z,90.15
2022-11-16T05:27:05.004Z,89.97
2022-11-16T05:29:31.700Z,89.53
2022-11-16T05:31:59.157Z,89.62
2022-11-16T05:34:25.867Z,89.48
2022-11-16T05:36:52.538Z,89.58
2022-11-16T05:39:19.525Z,89.33
2022-11-16T05:41:46.527Z,89.38
2022-11-16T05:44:13.584Z,89.35
2022-11-16T05:46:40.302Z,89.34
2022-11-16T05:49:09.580Z,89.27
2022-11-16T05:51:36.982Z,89.47
2022-11-16T05:54:04.313Z,89.11
2022-11-16T05:56:31.336Z,89.15
2022-11-16T05:58:58.137Z,89.09
2022-11-16T06:01:24.920Z,88.84
2022-11-16T06:03:51.835Z,88.96
2022-11-16T06:06:18.707Z,88.72
2022-11-16T06:08:45.163Z,88.47
2022-11-16T06:11:12.540Z,88.40
2022-11-16T06:13:39.277Z,88.35
2022-11-16T06:16:06.385Z,88.04
2022-11-16T06:18:37.289Z,87.95
2022-11-16T06:21:03.988Z,88.23
2022-11-16T06:23:30.376Z,87.96
2022-11-16T06:25:57.006Z,87.82
2022-11-16T06:28:23.909Z,87.84
2022-11-16T06:30:50.326Z,87.81
2022-11-16T06:33:17.287Z,87.83
2022-11-16T06:35:43.758Z,87.81
2022-11-16T06:38:10.494Z,87.89
2022-11-16T06:40:38.158Z,87.71
2022-11-16T06:43:04.621Z,87.74
2022-11-16T06:45:31.037Z,87.78
2022-11-16T06:47:57.462Z,87.72
2022-11-16T06:50:23.920Z,87.74
2022-11-16T06:52:50.556Z,87.82
2022-11-16T06:55:16.982Z,87.43
2022-11-16T06:57:43.461Z,87.31
2022-11-16T07:00:11.213Z,87.37
2022-11-16T07:02:38.485Z,87.32
2022-11-16T07:05:06.103Z,87.42
2022-11-16T07:07:33.357Z,87.66
2022-11-16T07:09:59.846Z,87.51
2022-11-16T07:12:27.164Z,87.45
2022-11-16T07:14:53.582Z,87.39
2022-11-16T07:17:19.980Z,87.41
2022-11-16T07:19:46.370Z,87.20
2022-11-16T07:22:12.809Z,87.41
2022-11-16T07:24:39.178Z,87.39
2022-11-16T07:27:07.639Z,87.13
2022-11-16T07:29:36.726Z,87.25
2022-11-16T07:32:03.123Z,87.39
2022-11-16T07:34:29.559Z,87.13
2022-11-16T07:36:55.939Z,86.93
2022-11-16T07:39:22.552Z,87.00
2022-11-16T07:41:52.906Z,87.22
2022-11-16T07:44:20.008Z,86.75
2022-11-16T07:46:47.831Z,86.95
2022-11-16T07:49:15.892Z,87.14
2022-11-16T07:51:42.907Z,86.99
2022-11-16T07:54:16.509Z,86.85
2022-11-16T07:56:42.934Z,86.75
2022-11-16T07:59:09.542Z,86.41
2022-11-16T08:01:36.063Z,86.49
2022-11-16T08:04:02.709Z,86.48
2022-11-16T08:06:31.076Z,86.31
2022-11-16T08:08:58.919Z,86.79
2022-11-16T08:11:26.051Z,86.90
2022-11-16T08:13:52.499Z,86.84
2022-11-16T08:16:21.899Z,86.68
2022-11-16T08:18:48.687Z,86.96
2022-11-16T08:21:16.406Z,87.28
2022-11-16T08:23:44.908Z,87.20
2022-11-16T08:26:16.856Z,87.66
2022-11-16T08:28:45.583Z,87.83
2022-11-16T08:31:17.443Z,88.03
2022-11-16T08:33:43.857Z,87.48
2022-11-16T08:36:14.409Z,86.80
2022-11-16T08:38:41.161Z,86.90
2022-11-16T08:41:07.748Z,86.93
2022-11-16T08:43:34.320Z,86.16
2022-11-16T08:46:01.444Z,85.96
2022-11-16T08:48:27.888Z,85.86
2022-11-16T08:51:17.891Z,85.73
2022-11-16T08:53:40.796Z,86.11
2022-11-16T08:56:12.462Z,86.26
2022-11-16T08:58:39.957Z,86.30
2022-11-16T09:01:09.823Z,86.21
2022-11-16T09:03:38.234Z,86.16
2022-11-16T09:06:04.938Z,86.14
2022-11-16T09:08:31.553Z,85.80
2022-11-16T09:10:58.204Z,85.81
2022-11-16T09:13:25.206Z,85.59
2022-11-16T09:15:58.920Z,85.24
2022-11-16T09:18:26.241Z,84.89
2022-11-16T09:20:52.870Z,84.85
2022-11-16T09:23:24.873Z,84.39
2022-11-16T09:25:51.894Z,84.50
2022-11-16T09:28:19.603Z,84.14
2022-11-16T09:30:48.511Z,83.97
2022-11-16T09:33:15.143Z,84.13
2022-11-16T09:35:42.314Z,83.34
2022-11-16T09:38:09.939Z,82.96
2022-11-16T09:40:43.332Z,82.93
2022-11-16T09:43:28.678Z,82.17
2022-11-16T09:46:13.532Z,81.76
2022-11-16T09:48:41.359Z,81.81
2022-11-16T09:51:13.757Z,81.01
2022-11-16T09:53:43.189Z,80.47
2022-11-16T09:56:22.240Z,79.97
2022-11-16T09:59:04.387Z,79.65
2022-11-16T10:01:42.992Z,78.74
2022-11-16T10:04:43.760Z,77.87
2022-11-16T10:07:31.859Z,77.00
2022-11-16T10:09:58.336Z,76.99
2022-11-16T10:12:48.575Z,77.27
2022-11-16T10:15:30.499Z,77.17
2022-11-16T10:18:15.799Z,76.45
2022-11-16T10:20:58.250Z,75.92
2022-11-16T10:23:40.046Z,75.42
2022-11-16T10:26:22.918Z,74.44
2022-11-16T10:29:17.205Z,74.48
2022-11-16T10:31:56.242Z,73.50
2022-11-16T10:34:26.145Z,72.30
2022-11-16T10:36:56.352Z,72.36
2022-11-16T10:39:24.873Z,72.11
2022-11-16T10:41:51.742Z,70.88
2022-11-16T10:44:41.973Z,70.09
2022-11-16T10:47:29.407Z,69.18
2022-11-16T10:50:01.162Z,68.99
2022-11-16T10:52:28.152Z,68.86
2022-11-16T10:54:54.944Z,68.20
2022-11-16T10:57:23.670Z,65.97
2022-11-16T10:59:55.312Z,65.67
2022-11-16T11:02:24.482Z,66.28
2022-11-16T11:05:01.869Z,65.42
2022-11-16T11:07:37.723Z,65.18
2022-11-16T11:10:06.607Z,64.42
2022-11-16T11:12:38.628Z,64.53
2022-11-16T11:15:11.165Z,65.89
2022-11-16T11:17:43.724Z,66.67
2022-11-16T11:20:16.432Z,65.67
2022-11-16T11:22:51.807Z,65.01
2022-11-16T11:25:35.664Z,65.19
2022-11-16T11:28:23.131Z,63.75
2022-11-16T11:31:00.176Z,63.53
2022-11-16T11:33:30.629Z,64.07
2022-11-16T11:36:13.152Z,62.45
2022-11-16T11:39:07.081Z,62.53
2022-11-16T11:41:36.981Z,63.13
2022-11-16T11:44:12.510Z,62.63
2022-11-16T11:47:23.710Z,62.24
2022-11-16T11:49:34.695Z,62.60
2022-11-16T11:52:45.375Z,62.42
2022-11-16T11:55:17.488Z,63.73
2022-11-16T11:57:48.819Z,64.10
2022-11-16T12:00:15.883Z,63.35
2022-11-16T12:03:00.259Z,63.79
2022-11-16T12:05:52.880Z,62.67
2022-11-16T12:08:37.309Z,60.96
2022-11-16T12:11:16.633Z,60.40
2022-11-16T12:14:00.289Z,59.79
2022-11-16T12:16:45.909Z,59.74
2022-11-16T12:19:21.552Z,60.41
2022-11-16T12:22:06.225Z,60.98
2022-11-16T12:24:41.732Z,60.96
2022-11-16T12:27:44.016Z,62.37
2022-11-16T12:30:14.849Z,61.44
2022-11-16T12:33:03.057Z,61.61
2022-11-16T12:35:38.357Z,61.23
2022-11-16T12:38:10.622Z,60.48
2022-11-16T12:41:03.777Z,61.14
2022-11-16T12:43:49.208Z,59.98
2022-11-16T12:47:06.948Z,59.33
2022-11-16T12:49:57.359Z,59.99
2022-11-16T12:52:36.032Z,60.24
2022-11-16T12:55:29.822Z,59.22
2022-11-16T12:58:24.693Z,58.90
2022-11-16T13:01:24.605Z,59.18
2022-11-16T13:03:57.123Z,60.90
2022-11-16T13:06:40.738Z,59.54
2022-11-16T13:09:18.485Z,59.96
2022-11-16T13:11:54.213Z,59.88
2022-11-16T13:14:26.180Z,59.46
2022-11-16T13:16:53.874Z,59.25
2022-11-16T13:19:20.980Z,60.17
2022-11-16T13:22:07.465Z,59.39
2022-11-16T13:25:02.939Z,59.76
2022-11-16T13:27:45.827Z,60.18
2022-11-16T13:30:21.756Z,60.25
2022-11-16T13:33:19.128Z,61.71
2022-11-16T13:35:45.713Z,62.52
2022-11-16T13:38:13.428Z,63.32
2022-11-16T13:40:40.820Z,63.63
2022-11-16T13:43:18.377Z,63.47
2022-11-16T13:45:45.642Z,63.61
2022-11-16T13:48:25.664Z,63.90
2022-11-16T13:50:56.618Z,62.85
2022-11-16T13:56:18.056Z,62.44
2022-11-16T13:58:50.579Z,62.05
2022-11-16T14:01:18.581Z,62.66
2022-11-16T14:03:47.567Z,62.27
2022-11-16T14:06:19.946Z,61.58
2022-11-16T14:08:51.925Z,62.86
2022-11-16T14:11:31.590Z,62.79
2022-11-16T14:14:05.499Z,62.11
2022-11-16T14:16:43.074Z,62.75
2022-11-16T14:19:47.469Z,62.61
2022-11-16T14:22:48.366Z,63.63
2022-11-16T14:25:37.275Z,63.29
2022-11-16T14:28:42.944Z,63.51
2022-11-16T14:31:12.375Z,63.54
2022-11-16T14:33:39.166Z,63.50
2022-11-16T14:36:10.847Z,63.84
2022-11-16T14:38:42.791Z,65.84
2022-11-16T14:41:22.259Z,64.93
2022-11-16T14:43:53.530Z,64.51
2022-11-16T14:46:26.002Z,64.87
2022-11-16T14:48:55.280Z,65.31
2022-11-16T14:51:26.001Z,65.67
2022-11-16T14:54:07.513Z,66.03
2022-11-16T14:56:33.966Z,65.99
2022-11-16T14:59:02.134Z,66.00
2022-11-16T15:01:34.983Z,66.75
2022-11-16T15:04:07.787Z,66.87
2022-11-16T15:06:54.660Z,67.52
2022-11-16T15:09:26.970Z,67.79
2022-11-16T15:12:12.595Z,68.00
2022-11-16T15:14:48.069Z,68.24
2022-11-16T15:17:17.789Z,68.54
2022-11-16T15:19:52.637Z,68.58
2022-11-16T15:22:19.338Z,68.96
2022-11-16T15:24:54.194Z,68.46
2022-11-16T15:27:27.881Z,68.95
2022-11-16T15:29:54.340Z,69.25
2022-11-16T15:32:21.005Z,69.07
2022-11-16T15:34:53.694Z,69.25
2022-11-16T15:37:30.315Z,69.45
2022-11-16T15:39:58.591Z,69.52
2022-11-16T15:42:28.082Z,69.46
2022-11-16T15:44:55.520Z,69.78
2022-11-16T15:47:23.506Z,70.08
2022-11-16T15:49:52.926Z,70.37
2022-11-16T15:52:42.841Z,70.67
2022-11-16T15:55:31.509Z,70.59
2022-11-16T15:58:11.525Z,70.91
2022-11-16T16:00:38.102Z,71.44
2022-11-16T16:03:18.941Z,72.42
2022-11-16T16:05:45.741Z,71.80
2022-11-16T16:08:35.885Z,72.30
2022-11-16T16:11:12.210Z,71.95
2022-11-16T16:13:41.742Z,71.67
2022-11-16T16:16:23.176Z,71.68
2022-11-16T16:18:51.453Z,72.36
2022-11-16T16:21:17.944Z,72.67
2022-11-16T16:23:53.596Z,72.45
2022-11-16T16:26:21.574Z,72.65
2022-11-16T16:28:48.121Z,72.91
2022-11-16T16:31:16.767Z,73.57
2022-11-16T16:33:43.171Z,73.50
2022-11-16T16:36:11.609Z,74.21
2022-11-16T16:38:38.769Z,74.40
2022-11-16T16:41:06.734Z,74.07
2022-11-16T16:43:33.946Z,74.34
2022-11-16T16:46:02.183Z,74.17
2022-11-16T16:48:28.973Z,74.10
2022-11-16T16:50:55.372Z,73.85
2022-11-16T16:53:21.814Z,74.71
2022-11-16T16:55:48.885Z,74.67
2022-11-16T16:58:15.651Z,74.63
2022-11-16T17:00:42.399Z,74.62
2022-11-16T17:03:09.071Z,75.01
2022-11-16T17:05:35.887Z,75.42
2022-11-16T17:08:02.301Z,75.29
2022-11-16T17:10:28.705Z,75.59
2022-11-16T17:12:55.715Z,75.72
2022-11-16T17:15:22.875Z,75.32
2022-11-16T17:17:49.340Z,75.82
2022-11-16T17:20:16.385Z,76.13
2022-11-16T17:22:44.886Z,76.05
2022-11-16T17:25:17.401Z,76.76
2022-11-16T17:27:43.780Z,76.14
2022-11-16T17:30:10.879Z,76.86
2022-11-16T17:32:37.484Z,77.05
2022-11-16T17:35:04.623Z,77.01
2022-11-16T17:37:31.420Z,77.31
2022-11-16T17:39:58.073Z,77.37
2022-11-16T17:42:24.499Z,77.30
2022-11-16T17:44:51.084Z,76.77
2022-11-16T17:47:17.516Z,76.64
2022-11-16T17:49:57.966Z,77.21
2022-11-16T17:52:24.805Z,77.09
2022-11-16T17:54:51.303Z,76.12
2022-11-16T17:57:20.799Z,77.45
2022-11-16T17:59:47.728Z,77.12
2022-11-16T18:02:14.129Z,76.51
2022-11-16T18:04:40.749Z,76.28
2022-11-16T18:07:07.211Z,75.98
2022-11-16T18:09:33.640Z,76.73
2022-11-16T18:12:00.249Z,76.15
2022-11-16T18:14:26.955Z,76.38
2022-11-16T18:16:53.519Z,76.25
2022-11-16T18:19:19.946Z,76.71
2022-11-16T18:21:46.847Z,76.72
2022-11-16T18:24:13.807Z,76.77
2022-11-16T18:26:40.873Z,76.21
2022-11-16T18:29:12.108Z,76.43
2022-11-16T18:31:38.745Z,76.30
2022-11-16T18:34:05.230Z,76.37
2022-11-16T18:36:31.611Z,76.10
2022-11-16T18:38:58.084Z,76.21
2022-11-16T18:41:27.909Z,76.36
2022-11-16T18:43:56.637Z,76.32
2022-11-16T18:46:28.494Z,76.02
2022-11-16T18:48:55.773Z,76.72
2022-11-16T18:51:24.251Z,76.52
2022-11-16T18:53:50.604Z,76.54
2022-11-16T18:56:18.499Z,76.18
2022-11-16T18:58:53.395Z,76.20
2022-11-16T19:01:22.570Z,76.28
2022-11-16T19:03:49.807Z,76.70
2022-11-16T19:06:17.651Z,76.53
2022-11-16T19:08:48.837Z,76.99
2022-11-16T19:11:18.484Z,77.03
2022-11-16T19:13:44.940Z,77.28
2022-11-16T19:16:13.252Z,77.29
2022-11-16T19:18:40.043Z,77.29
2022-11-16T19:21:11.580Z,76.96
2022-11-16T19:23:40.538Z,76.80
2022-11-16T19:26:07.220Z,76.67
2022-11-16T19:28:38.530Z,76.49
2022-11-16T19:31:09.826Z,76.99
2022-11-16T19:33:37.315Z,76.34
2022-11-16T19:36:08.509Z,76.93
2022-11-16T19:38:35.233Z,77.10
2022-11-16T19:41:02.020Z,76.78
2022-11-16T19:43:28.771Z,77.20
2022-11-16T19:45:55.136Z,77.37
2022-11-16T19:48:21.616Z,77.22
2022-11-16T19:50:48.071Z,77.79
2022-11-16T19:53:14.464Z,77.92
2022-11-16T19:55:41.891Z,78.59
2022-11-16T19:58:08.659Z,78.41
2022-11-16T20:00:35.153Z,77.79
2022-11-16T20:03:01.556Z,78.34
2022-11-16T20:05:29.923Z,77.77
2022-11-16T20:07:59.334Z,77.91
2022-11-16T20:10:28.069Z,77.88
2022-11-16T20:12:54.792Z,77.61
2022-11-16T20:15:23.412Z,77.85
2022-11-16T20:17:49.856Z,77.88
2022-11-16T20:20:16.358Z,78.22
2022-11-16T20:22:43.714Z,77.88
2022-11-16T20:25:10.968Z,78.38
2022-11-16T20:27:37.425Z,78.31
2022-11-16T20:30:09.272Z,78.17
2022-11-16T20:32:36.238Z,77.77
2022-11-16T20:35:02.700Z,77.69
2022-11-16T20:37:29.106Z,77.71
2022-11-16T20:39:57.087Z,77.94
2022-11-16T20:42:24.009Z,77.93
2022-11-16T20:44:50.426Z,77.84
2022-11-16T20:47:16.820Z,77.84
2022-11-16T20:49:43.238Z,77.66
2022-11-16T20:52:09.644Z,77.82
2022-11-16T20:54:36.116Z,77.83
2022-11-16T20:57:02.568Z,77.82
2022-11-16T20:59:29.002Z,78.10
2022-11-16T21:01:55.524Z,78.16
2022-11-16T21:04:22.020Z,78.34
2022-11-16T21:06:48.553Z,77.99
2022-11-16T21:09:15.828Z,78.17
2022-11-16T21:12:01.242Z,78.30
2022-11-16T21:14:29.096Z,78.27
2022-11-16T21:16:55.484Z,77.88
2022-11-16T21:19:21.940Z,78.53
2022-11-16T21:21:48.344Z,78.33
2022-11-16T21:24:14.809Z,78.67
2022-11-16T21:26:41.226Z,78.73
2022-11-16T21:29:07.700Z,78.58
2022-11-16T21:31:36.568Z,78.23
2022-11-16T21:34:03.480Z,78.16
2022-11-16T21:36:31.741Z,77.96
2022-11-16T21:38:58.464Z,78.38
2022-11-16T21:41:25.917Z,78.36
2022-11-16T21:43:55.262Z,78.65
2022-11-16T21:46:26.529Z,78.57
2022-11-16T21:48:55.301Z,78.62
2022-11-16T21:51:25.079Z,78.13
2022-11-16T21:53:52.130Z,78.69
2022-11-16T21:56:22.180Z,78.62
2022-11-16T21:58:50.319Z,78.98
2022-11-16T22:01:16.862Z,79.13
2022-11-16T22:03:44.745Z,78.76
2022-11-16T22:06:34.233Z,79.15
2022-11-16T22:09:00.834Z,78.86
2022-11-16T22:11:27.382Z,79.05
2022-11-16T22:13:53.922Z,79.39
2022-11-16T22:16:23.032Z,79.16
2022-11-16T22:18:50.072Z,79.54
2022-11-16T22:21:16.688Z,79.65
2022-11-16T22:23:43.095Z,79.63
2022-11-16T22:26:11.750Z,79.95
2022-11-16T22:28:39.214Z,80.14
2022-11-16T22:31:08.279Z,79.95
2022-11-16T22:33:35.379Z,79.86
2022-11-16T22:36:02.487Z,80.51
2022-11-16T22:38:28.964Z,80.46
2022-11-16T22:40:56.941Z,80.42
2022-11-16T22:43:25.895Z,80.32
2022-11-16T22:45:56.797Z,80.48
2022-11-16T22:48:23.201Z,80.56
2022-11-16T22:50:49.633Z,80.39
2022-11-16T22:53:16.061Z,80.78
2022-11-16T22:55:42.572Z,80.71
2022-11-16T22:58:09.036Z,80.63
2022-11-16T23:00:40.601Z,80.59
2022-11-16T23:03:08.611Z,80.53
2022-11-16T23:05:35.168Z,80.96
2022-11-16T23:08:02.119Z,81.36
2022-11-16T23:10:28.994Z,81.37
2022-11-16T23:13:17.713Z,81.05
2022-11-16T23:15:50.264Z,81.27
2022-11-16T23:18:19.456Z,81.24
2022-11-16T23:21:08.877Z,82.03
2022-11-16T23:24:07.395Z,82.19
2022-11-16T23:26:52.375Z,81.58
2022-11-16T23:29:18.811Z,81.41
2022-11-16T23:31:45.296Z,81.68
2022-11-16T23:34:11.743Z,82.50
2022-11-16T23:36:38.203Z,81.98
2022-11-16T23:39:04.585Z,82.34
2022-11-16T23:41:49.673Z,82.14
2022-11-16T23:44:16.755Z,82.22
2022-11-16T23:46:43.480Z,81.64
2022-11-16T23:49:10.444Z,82.00
2022-11-16T23:51:37.174Z,81.59
2022-11-16T23:54:04.771Z,81.36
2022-11-16T23:56:32.234Z,81.55
2022-11-16T23:58:58.899Z,82.03
